Flight Track Log - Related Links

Times and Time Zones

All times are in EDT time to prevent confusion due to time zone crossing. See the EJM918 flight status page for this flight to view local times or setup timezone preferences in your user account.

Time Position Orientation Groundspeed Altitude Reporting Facility
EDT Latitude Longitude Course Direction KTS MPH feet Rate Location/Type
Tue 03:50:32 PM 41.9417 -72.6997 266° West 157 181 800  Level Boston Center
Tue 03:51:54 PM 41.9831 -72.7725 307° West 219 252 3,300 1,821 Climbing Boston Center
Tue 03:52:24 PM 41.9789 -72.8058 260° West 251 289 4,200 2,110 Climbing Boston Center
Tue 03:53:25 PM 41.9658 -72.9008 260° West 263 303 6,500 2,441 Climbing Boston Center
Tue 03:54:22 PM 41.9531 -72.9956 260° West 269 310 9,000 1,744 Climbing Boston Center
Tue 03:55:22 PM 41.9378 -73.1156 260° West 285 328 9,900 446 Climbing Boston Center
Tue 03:56:00 PM 41.9148 -73.0034 266° West  Level FlightAware Approximate
Tue 03:56:23 PM 41.9203 -73.2353 259° West 328 377 9,900  Level Boston Center
Tue 04:01:26 PM 41.6000 -73.6880 259° West 278 320 7,800 -495 Descending FlightAware ADS-B
Tue 04:01:50 PM 41.5770 -73.7140 220° Southwest 277 319 7,200 -1,429 Descending FlightAware ADS-B
Tue 04:02:08 PM 41.5600 -73.7350 223° Southwest 272 313 6,800 -1,304 Descending FlightAware ADS-B
Tue 04:02:36 PM 41.5340 -73.7650 221° Southwest 272 313 6,200 -1,200 Descending FlightAware ADS-B
Tue 04:02:48 PM 41.5230 -73.7780 222° Southwest 273 314 6,000 -800 Descending FlightAware ADS-B
Tue 04:03:06 PM 41.5050 -73.7990 221° Southwest 273 314 5,800 -240 Descending FlightAware ADS-B
Tue 04:03:38 PM 41.4790 -73.8300 222° Southwest 272 313 5,800 -103 Level FlightAware ADS-B
Tue 04:04:04 PM 41.4520 -73.8530 213° Southwest 274 315 5,700 -113 Descending FlightAware ADS-B
Tue 04:04:31 PM 41.4240 -73.8670 201° Southwest 274 315 5,700 -1,364 Level FlightAware ADS-B
Tue 04:04:48 PM 41.4050 -73.8190 118° Southeast 282 325 4,700 -2,341 Descending FlightAware ADS-B
Tue 04:05:12 PM 41.3860 -73.7870 128° Southeast 277 319 4,100 -706 Descending FlightAware ADS-B
Tue 04:05:39 PM 41.3680 -73.7560 128° Southeast 277 319 4,100 -805 Level FlightAware ADS-B
Tue 04:06:34 PM 41.3167 -73.6667 128° Southeast 271 312 3,000 -545 Descending New York TRACON
Tue 04:07:40 PM 41.2667 -73.6000 135° Southeast 238 274 3,000  Level New York TRACON
Tue 04:08:40 PM 41.2167 -73.5833 166° South 218 251 3,000  Level New York TRACON
Tue 04:09:40 PM 41.1500 -73.5667 169° South 218 251 3,000  Level New York TRACON
Tue 04:10:40 PM 41.1000 -73.5667 180° South 194 223 3,000  Level New York TRACON
Tue 04:11:40 PM 41.0500 -73.5500 166° South 192 221 3,000  Level New York TRACON
Tue 04:12:40 PM 41.0000 -73.5500 180° South 173 199 3,000 -50 Level New York TRACON
Tue 04:13:40 PM 40.9667 -73.6000 229° Southwest 158 182 2,900 -450 Descending New York TRACON
Tue 04:14:40 PM 40.9833 -73.6500 294° West 155 178 2,100 -800 Descending New York TRACON
Tue 04:15:40 PM 41.0167 -73.6667 339° North 120 138 1,300 -700 Descending New York TRACON
Tue 04:16:40 PM 41.0500 -73.7000 323° Northwest 116 133 700 -600 Descending New York TRACON
Tue 04:18:00 PM 41.0667 -73.7000 278° West  Level FlightAware Approximate
Tue 04:25:00 PM 41.0669 -73.7076 278° West  Level Estimated
Tue 04:26:00 PM 41.0667 -73.7000 278° West  Level FlightAware Approximate

Login

Don't have an account? Register now (free) for customized features, flight alerts, and more!